createdAt,value
2017-10-22T00:01:15.126Z,13.07
2017-10-22T00:03:42.705Z,12.65
2017-10-22T00:06:10.481Z,12.73
2017-10-22T00:08:39.062Z,12.86
2017-10-22T00:11:06.720Z,12.88
2017-10-22T00:13:34.276Z,13.07
2017-10-22T00:16:02.606Z,13.10
2017-10-22T00:18:30.198Z,13.12
2017-10-22T00:20:57.971Z,13.14
2017-10-22T00:23:25.546Z,13.11
2017-10-22T00:25:53.099Z,13.07
2017-10-22T00:28:20.628Z,12.98
2017-10-22T00:30:48.218Z,12.92
2017-10-22T00:33:15.733Z,12.86
2017-10-22T00:35:43.337Z,12.89
2017-10-22T00:38:13.902Z,12.91
2017-10-22T00:40:42.191Z,12.88
2017-10-22T00:43:10.481Z,12.82
2017-10-22T00:45:38.782Z,12.79
2017-10-22T00:48:07.841Z,12.74
2017-10-22T00:50:35.516Z,12.88
2017-10-22T00:53:04.691Z,12.96
2017-10-22T00:55:33.186Z,13.01
2017-10-22T00:58:00.795Z,13.03
2017-10-22T01:00:29.103Z,13.01
2017-10-22T01:02:56.777Z,12.91
2017-10-22T01:05:25.276Z,12.85
2017-10-22T01:07:53.139Z,12.87
2017-10-22T01:10:20.732Z,13.02
2017-10-22T01:12:48.367Z,12.96
2017-10-22T01:15:16.036Z,12.85
2017-10-22T01:17:43.565Z,13.03
2017-10-22T01:20:11.102Z,12.94
2017-10-22T01:22:38.698Z,12.93
2017-10-22T01:25:06.314Z,12.90
2017-10-22T01:27:33.911Z,12.85
2017-10-22T01:30:01.489Z,12.94
2017-10-22T01:32:29.135Z,13.02
2017-10-22T01:34:59.337Z,12.87
2017-10-22T01:37:28.106Z,13.07
2017-10-22T01:39:55.698Z,12.98
2017-10-22T01:42:23.310Z,12.94
2017-10-22T01:44:51.427Z,13.02
2017-10-22T01:47:18.989Z,13.14
2017-10-22T01:49:46.859Z,12.95
2017-10-22T01:52:14.589Z,13.05
2017-10-22T01:54:42.239Z,12.96
2017-10-22T01:57:09.941Z,12.85
2017-10-22T01:59:37.502Z,12.70
2017-10-22T02:02:05.056Z,12.71
2017-10-22T02:04:33.685Z,12.82
2017-10-22T02:07:01.286Z,12.86
2017-10-22T02:09:29.498Z,12.69
2017-10-22T02:11:57.089Z,12.69
2017-10-22T02:14:24.697Z,12.83
2017-10-22T02:16:52.336Z,12.84
2017-10-22T02:19:19.914Z,12.89
2017-10-22T02:21:47.489Z,12.71
2017-10-22T02:24:15.327Z,12.85
2017-10-22T02:26:42.906Z,13.01
2017-10-22T02:29:10.568Z,12.91
2017-10-22T02:31:38.179Z,12.86
2017-10-22T02:34:05.692Z,12.91
2017-10-22T02:36:33.253Z,12.95
2017-10-22T02:39:01.445Z,12.91
2017-10-22T02:41:30.375Z,12.79
2017-10-22T02:43:57.968Z,12.82
2017-10-22T02:46:25.530Z,12.72
2017-10-22T02:48:53.867Z,12.76
2017-10-22T02:51:21.504Z,12.76
2017-10-22T02:53:49.989Z,12.81
2017-10-22T02:56:18.977Z,12.79
2017-10-22T02:58:46.530Z,12.71
2017-10-22T03:01:14.065Z,12.69
2017-10-22T03:03:42.189Z,12.61
2017-10-22T03:06:09.943Z,12.31
2017-10-22T03:08:39.377Z,12.51
2017-10-22T03:11:07.074Z,12.65
2017-10-22T03:13:36.970Z,12.78
2017-10-22T03:16:06.468Z,12.53
2017-10-22T03:18:37.080Z,12.61
2017-10-22T03:21:04.803Z,12.53
2017-10-22T03:23:33.253Z,12.55
2017-10-22T03:26:02.041Z,12.30
2017-10-22T03:28:29.693Z,12.34
2017-10-22T03:30:57.851Z,12.28
2017-10-22T03:33:25.854Z,12.34
2017-10-22T03:35:53.465Z,12.42
2017-10-22T03:38:21.049Z,12.24
2017-10-22T03:40:49.138Z,12.47
2017-10-22T03:43:17.597Z,12.50
2017-10-22T03:45:45.905Z,12.62
2017-10-22T03:48:14.212Z,12.74
2017-10-22T03:50:42.609Z,12.85
2017-10-22T03:53:10.884Z,12.96
2017-10-22T03:55:38.385Z,12.93
2017-10-22T03:58:05.999Z,12.95
2017-10-22T04:00:33.543Z,12.95
2017-10-22T04:03:01.857Z,12.87
2017-10-22T04:05:29.396Z,12.92
2017-10-22T04:07:58.973Z,12.91
2017-10-22T04:10:26.606Z,12.89
2017-10-22T04:12:54.173Z,12.83
2017-10-22T04:15:22.292Z,12.83
2017-10-22T04:17:50.075Z,12.85
2017-10-22T04:20:18.065Z,12.80
2017-10-22T04:22:45.915Z,12.85
2017-10-22T04:25:13.484Z,12.87
2017-10-22T04:27:41.935Z,12.86
2017-10-22T04:30:09.524Z,12.81
2017-10-22T04:32:37.879Z,12.58
2017-10-22T04:35:06.225Z,12.43
2017-10-22T04:37:36.219Z,12.62
2017-10-22T04:40:03.852Z,12.65
2017-10-22T04:42:31.489Z,12.60
2017-10-22T04:44:59.073Z,12.62
2017-10-22T04:47:26.651Z,12.54
2017-10-22T04:49:54.162Z,12.54
2017-10-22T04:52:21.719Z,12.41
2017-10-22T04:54:49.278Z,12.25
2017-10-22T04:57:17.113Z,12.19
2017-10-22T04:59:44.711Z,12.23
2017-10-22T05:02:12.265Z,12.30
2017-10-22T05:04:40.627Z,12.43
2017-10-22T05:07:08.241Z,12.39
2017-10-22T05:09:36.798Z,12.28
2017-10-22T05:12:04.934Z,12.15
2017-10-22T05:14:32.707Z,12.05
2017-10-22T05:17:00.309Z,12.21
2017-10-22T05:19:27.850Z,12.16
2017-10-22T05:21:55.366Z,12.19
2017-10-22T05:24:23.926Z,12.09
2017-10-22T05:26:52.018Z,11.93
2017-10-22T05:29:21.484Z,12.00
2017-10-22T05:31:49.112Z,12.12
2017-10-22T05:34:16.632Z,12.12
2017-10-22T05:36:45.059Z,12.16
2017-10-22T05:39:13.539Z,11.67
2017-10-22T05:41:42.815Z,11.72
2017-10-22T05:44:10.293Z,12.01
2017-10-22T05:46:37.823Z,12.15
2017-10-22T05:49:05.289Z,12.13
2017-10-22T05:51:32.776Z,12.09
2017-10-22T05:54:00.287Z,12.05
2017-10-22T05:56:27.805Z,12.01
2017-10-22T05:58:55.336Z,12.14
2017-10-22T06:01:22.859Z,11.76
2017-10-22T06:03:50.482Z,11.77
2017-10-22T06:06:17.977Z,11.67
2017-10-22T06:08:45.548Z,11.79
2017-10-22T06:11:13.087Z,11.68
2017-10-22T06:13:40.628Z,11.58
2017-10-22T06:16:08.234Z,11.37
2017-10-22T06:18:35.738Z,11.56
2017-10-22T06:21:03.351Z,11.45
2017-10-22T06:23:30.854Z,11.41
2017-10-22T06:25:59.220Z,11.50
2017-10-22T06:28:26.771Z,11.66
2017-10-22T06:30:54.265Z,11.67
2017-10-22T06:33:21.961Z,11.82
2017-10-22T06:35:49.567Z,11.81
2017-10-22T06:38:19.387Z,11.99
2017-10-22T06:40:46.926Z,13.30
2017-10-22T06:43:14.427Z,16.00
2017-10-22T06:45:42.392Z,17.55
2017-10-22T06:48:10.044Z,18.14
2017-10-22T06:50:37.697Z,17.86
2017-10-22T06:53:06.666Z,18.69
2017-10-22T06:55:34.292Z,19.92
2017-10-22T06:58:02.573Z,21.19
2017-10-22T07:00:32.734Z,20.58
2017-10-22T07:03:00.586Z,20.70
2017-10-22T07:05:28.093Z,20.90
2017-10-22T07:07:55.799Z,20.89
2017-10-22T07:10:24.132Z,21.35
2017-10-22T07:12:52.778Z,22.13
2017-10-22T07:15:20.408Z,22.82
2017-10-22T07:17:47.945Z,20.40
2017-10-22T07:20:15.550Z,20.58
2017-10-22T07:22:43.160Z,19.64
2017-10-22T07:25:11.661Z,19.06
2017-10-22T07:27:40.434Z,20.13
2017-10-22T07:30:08.167Z,19.09
2017-10-22T07:32:36.407Z,19.98
2017-10-22T07:35:04.950Z,16.50
2017-10-22T07:37:33.728Z,16.26
2017-10-22T07:40:01.639Z,18.95
2017-10-22T07:42:29.237Z,21.34
2017-10-22T07:44:57.142Z,21.39
2017-10-22T07:47:29.216Z,21.27
2017-10-22T07:49:56.905Z,22.43
2017-10-22T07:52:26.964Z,22.29
2017-10-22T07:54:55.065Z,22.36
2017-10-22T07:57:23.474Z,24.04
2017-10-22T07:59:51.188Z,24.29
2017-10-22T08:02:18.980Z,23.18
2017-10-22T08:04:47.519Z,21.73
2017-10-22T08:07:15.170Z,21.34
2017-10-22T08:09:42.864Z,22.12
2017-10-22T08:12:10.602Z,22.37
2017-10-22T08:14:38.264Z,22.08
2017-10-22T08:17:06.117Z,21.84
2017-10-22T08:19:33.763Z,21.23
2017-10-22T08:22:02.140Z,20.98
2017-10-22T08:24:29.736Z,21.80
2017-10-22T08:26:57.369Z,22.27
2017-10-22T08:29:25.018Z,21.38
2017-10-22T08:31:52.898Z,20.70
2017-10-22T08:34:20.495Z,19.28
2017-10-22T08:36:48.048Z,17.58
2017-10-22T08:39:15.596Z,16.47
2017-10-22T08:41:43.428Z,16.37
2017-10-22T08:44:15.883Z,15.54
2017-10-22T08:46:43.723Z,14.93
2017-10-22T08:49:11.718Z,14.78
2017-10-22T08:51:39.396Z,14.49
2017-10-22T08:54:06.987Z,14.51
2017-10-22T08:56:34.550Z,14.82
2017-10-22T08:59:02.128Z,14.57
2017-10-22T09:01:31.297Z,14.52
2017-10-22T09:03:59.419Z,14.47
2017-10-22T09:06:26.939Z,14.30
2017-10-22T09:08:54.489Z,14.25
2017-10-22T09:11:22.114Z,13.90
2017-10-22T09:13:50.943Z,14.22
2017-10-22T09:16:18.587Z,14.31
2017-10-22T09:18:46.075Z,14.26
2017-10-22T09:21:13.680Z,14.55
2017-10-22T09:23:42.406Z,14.43
2017-10-22T09:26:11.605Z,14.58
2017-10-22T09:28:39.790Z,14.91
2017-10-22T09:31:07.314Z,15.18
2017-10-22T09:33:35.889Z,15.50
2017-10-22T09:36:03.764Z,15.25
2017-10-22T09:38:32.071Z,15.13
2017-10-22T09:40:59.648Z,15.35
2017-10-22T09:43:27.204Z,15.50
2017-10-22T09:45:55.603Z,15.28
2017-10-22T09:48:23.466Z,15.29
2017-10-22T09:50:51.779Z,15.45
2017-10-22T09:53:20.512Z,15.19
2017-10-22T09:55:49.141Z,15.50
2017-10-22T09:58:17.317Z,15.46
2017-10-22T10:00:45.814Z,15.93
2017-10-22T10:03:13.830Z,16.46
2017-10-22T10:05:41.709Z,16.03
2017-10-22T10:08:10.403Z,16.10
2017-10-22T10:10:39.805Z,16.78
2017-10-22T10:13:07.634Z,17.94
2017-10-22T10:15:35.732Z,19.24
2017-10-22T10:18:05.324Z,19.08
2017-10-22T10:20:35.024Z,19.79
2017-10-22T10:23:03.032Z,20.66
2017-10-22T10:25:31.945Z,21.31
2017-10-22T10:27:59.488Z,20.71
2017-10-22T10:30:27.686Z,20.13
2017-10-22T10:32:55.315Z,19.72
2017-10-22T10:35:22.911Z,21.17
2017-10-22T10:37:50.469Z,21.47
2017-10-22T10:40:18.418Z,20.33
2017-10-22T10:42:46.010Z,19.30
2017-10-22T10:45:13.751Z,19.35
2017-10-22T10:47:41.562Z,18.05
2017-10-22T10:50:11.169Z,17.16
2017-10-22T10:52:38.699Z,17.44
2017-10-22T10:55:06.337Z,17.31
2017-10-22T10:57:33.870Z,18.47
2017-10-22T11:00:04.043Z,20.77
2017-10-22T11:02:31.700Z,21.46
2017-10-22T11:05:00.060Z,22.71
2017-10-22T11:07:28.411Z,23.49
2017-10-22T11:09:57.772Z,23.37
2017-10-22T11:12:26.763Z,24.25
2017-10-22T11:14:54.389Z,22.42
2017-10-22T11:17:22.093Z,23.58
2017-10-22T11:19:50.145Z,23.70
2017-10-22T11:22:18.646Z,22.24
2017-10-22T11:24:46.208Z,21.59
2017-10-22T11:27:13.702Z,20.62
2017-10-22T11:29:42.208Z,21.95
2017-10-22T11:32:10.661Z,22.46
2017-10-22T11:34:38.157Z,21.59
2017-10-22T11:37:05.906Z,22.25
2017-10-22T11:39:33.441Z,23.10
2017-10-22T11:42:00.956Z,22.69
2017-10-22T11:44:29.723Z,23.79
2017-10-22T11:46:57.232Z,22.76
2017-10-22T11:49:24.929Z,22.81
2017-10-22T11:51:52.427Z,23.40
2017-10-22T11:54:20.027Z,24.45
2017-10-22T11:56:50.955Z,24.10
2017-10-22T11:59:18.605Z,21.79
2017-10-22T12:01:46.269Z,20.34
2017-10-22T12:04:13.884Z,19.77
2017-10-22T12:06:43.701Z,19.17
2017-10-22T12:09:11.355Z,18.23
2017-10-22T12:11:45.859Z,17.94
2017-10-22T12:14:13.496Z,18.78
2017-10-22T12:16:41.220Z,20.32
2017-10-22T12:19:08.886Z,19.59
2017-10-22T12:21:36.636Z,19.06
2017-10-22T12:24:04.154Z,18.26
2017-10-22T12:26:31.718Z,17.33
2017-10-22T12:28:59.303Z,17.23
2017-10-22T12:31:26.880Z,16.74
2017-10-22T12:33:54.618Z,16.90
2017-10-22T12:36:22.252Z,16.68
2017-10-22T12:38:49.810Z,17.00
2017-10-22T12:41:17.514Z,17.48
2017-10-22T12:43:45.025Z,17.55
2017-10-22T12:46:12.592Z,18.18
2017-10-22T12:48:40.202Z,18.33
2017-10-22T12:51:08.701Z,18.82
2017-10-22T12:53:36.312Z,19.48
2017-10-22T12:56:03.912Z,20.07
2017-10-22T12:58:31.545Z,19.24
2017-10-22T13:00:59.182Z,18.36
2017-10-22T13:03:26.824Z,17.92
2017-10-22T13:05:54.979Z,17.56
2017-10-22T13:08:22.840Z,17.40
2017-10-22T13:10:50.409Z,16.84
2017-10-22T13:13:18.039Z,16.78
2017-10-22T13:15:45.750Z,16.50
2017-10-22T13:18:13.304Z,16.33
2017-10-22T13:20:40.894Z,15.87
2017-10-22T13:23:09.017Z,15.78
2017-10-22T13:25:37.707Z,15.91
2017-10-22T13:28:08.450Z,16.00
2017-10-22T13:30:36.823Z,16.01
2017-10-22T13:33:04.406Z,16.21
2017-10-22T13:35:33.247Z,16.27
2017-10-22T13:38:02.440Z,15.95
2017-10-22T13:40:31.040Z,15.53
2017-10-22T13:42:58.881Z,15.29
2017-10-22T13:45:26.778Z,15.31
2017-10-22T13:47:54.604Z,15.10
2017-10-22T13:50:23.096Z,14.88
2017-10-22T13:52:51.049Z,14.98
2017-10-22T13:55:18.689Z,14.90
2017-10-22T13:57:47.180Z,14.77
2017-10-22T14:00:18.669Z,14.92
2017-10-22T14:02:48.874Z,15.07
2017-10-22T14:05:16.904Z,14.88
2017-10-22T14:07:44.792Z,14.43
2017-10-22T14:10:12.766Z,14.53
2017-10-22T14:12:41.038Z,14.65
2017-10-22T14:15:08.957Z,14.45
2017-10-22T14:17:36.504Z,14.74
2017-10-22T14:20:04.325Z,14.72
2017-10-22T14:22:31.969Z,14.26
2017-10-22T14:25:00.235Z,13.73
2017-10-22T14:27:30.038Z,13.84
2017-10-22T14:29:59.666Z,13.93
2017-10-22T14:32:28.315Z,13.74
2017-10-22T14:34:55.818Z,13.37
2017-10-22T14:37:23.395Z,13.25
2017-10-22T14:39:51.056Z,13.21
2017-10-22T14:42:18.594Z,13.34
2017-10-22T14:44:46.261Z,13.41
2017-10-22T14:47:13.810Z,13.22
2017-10-22T14:49:41.926Z,13.52
2017-10-22T14:52:09.501Z,13.51
2017-10-22T14:54:37.117Z,13.42
2017-10-22T14:57:04.689Z,13.45
2017-10-22T14:59:32.332Z,13.37
2017-10-22T15:01:59.840Z,13.34
2017-10-22T15:04:27.504Z,13.20
2017-10-22T15:06:55.313Z,13.16
2017-10-22T15:09:23.500Z,13.53
2017-10-22T15:11:51.914Z,13.41
2017-10-22T15:14:21.106Z,13.21
2017-10-22T15:16:49.228Z,13.28
2017-10-22T15:19:16.764Z,13.29
2017-10-22T15:21:44.497Z,12.88
2017-10-22T15:24:12.103Z,12.71
2017-10-22T15:26:39.776Z,13.03
2017-10-22T15:29:07.389Z,13.11
2017-10-22T15:31:34.891Z,13.20
2017-10-22T15:34:02.706Z,13.04
2017-10-22T15:36:30.342Z,13.15
2017-10-22T15:38:57.881Z,12.58
2017-10-22T15:41:25.416Z,12.55
2017-10-22T15:43:52.972Z,11.78
2017-10-22T15:46:21.455Z,11.91
2017-10-22T15:48:48.989Z,11.96
2017-10-22T15:51:16.719Z,12.19
2017-10-22T15:53:44.305Z,12.19
2017-10-22T15:56:11.859Z,12.04
2017-10-22T15:58:39.360Z,12.07
2017-10-22T16:01:06.915Z,12.13
2017-10-22T16:03:34.532Z,12.30
2017-10-22T16:06:02.062Z,12.64
2017-10-22T16:08:29.670Z,12.49
2017-10-22T16:10:57.171Z,12.47
2017-10-22T16:13:24.696Z,12.46
2017-10-22T16:15:52.208Z,12.45
2017-10-22T16:18:19.737Z,12.55
2017-10-22T16:20:47.393Z,12.37
2017-10-22T16:23:14.988Z,12.28
2017-10-22T16:25:42.521Z,11.69
2017-10-22T16:28:10.086Z,12.01
2017-10-22T16:30:37.648Z,12.11
2017-10-22T16:35:41.263Z,11.75
2017-10-22T16:38:12.551Z,11.93
2017-10-22T16:40:41.943Z,11.98
2017-10-22T16:43:11.147Z,11.85
2017-10-22T16:45:39.259Z,11.95
2017-10-22T16:48:07.796Z,11.77
2017-10-22T16:50:35.540Z,11.64
2017-10-22T16:53:03.751Z,11.64
2017-10-22T16:55:32.681Z,11.80
2017-10-22T16:58:02.069Z,11.71
2017-10-22T17:00:30.782Z,11.53
2017-10-22T17:02:58.403Z,11.46
2017-10-22T17:05:26.150Z,11.41
2017-10-22T17:07:54.584Z,11.36
2017-10-22T17:10:23.678Z,11.56
2017-10-22T17:12:51.487Z,11.36
2017-10-22T17:15:19.790Z,11.49
2017-10-22T17:17:48.537Z,11.28
2017-10-22T17:20:16.818Z,11.24
2017-10-22T17:22:48.381Z,11.37
2017-10-22T17:25:17.275Z,11.57
2017-10-22T17:27:47.668Z,11.53
2017-10-22T17:30:15.665Z,11.48
2017-10-22T17:32:43.345Z,11.65
2017-10-22T17:35:13.365Z,11.70
2017-10-22T17:37:41.258Z,11.71
2017-10-22T17:40:11.237Z,11.88
2017-10-22T17:42:39.989Z,11.81
2017-10-22T17:45:07.611Z,11.41
2017-10-22T17:47:36.086Z,11.30
2017-10-22T17:50:03.730Z,11.13
2017-10-22T17:52:32.020Z,11.22
2017-10-22T17:55:00.455Z,11.15
2017-10-22T17:57:28.015Z,11.21
2017-10-22T17:59:56.068Z,11.16
2017-10-22T18:02:23.849Z,11.13
2017-10-22T18:04:52.232Z,11.27
2017-10-22T18:07:19.849Z,11.18
2017-10-22T18:09:47.999Z,11.29
2017-10-22T18:12:15.601Z,11.20
2017-10-22T18:14:43.816Z,11.49
2017-10-22T18:17:12.482Z,11.36
2017-10-22T18:19:41.039Z,11.53
2017-10-22T18:22:08.705Z,11.65
2017-10-22T18:24:40.213Z,11.31
2017-10-22T18:27:09.014Z,11.42
2017-10-22T18:29:36.549Z,11.54
2017-10-22T18:32:05.650Z,11.54
2017-10-22T18:34:34.237Z,11.71
2017-10-22T18:37:02.057Z,10.96
2017-10-22T18:39:29.870Z,11.27
2017-10-22T18:41:57.544Z,11.53
2017-10-22T18:44:25.252Z,11.65
2017-10-22T18:46:53.901Z,11.60
2017-10-22T18:49:23.713Z,11.54
2017-10-22T18:51:51.324Z,11.47
2017-10-22T18:54:19.857Z,11.12
2017-10-22T18:56:48.148Z,11.43
2017-10-22T18:59:15.996Z,11.14
2017-10-22T19:01:43.609Z,11.10
2017-10-22T19:04:11.472Z,11.07
2017-10-22T19:06:39.839Z,11.25
2017-10-22T19:09:07.494Z,11.04
2017-10-22T19:11:35.158Z,11.18
2017-10-22T19:14:02.712Z,11.29
2017-10-22T19:16:30.619Z,11.38
2017-10-22T19:18:59.231Z,11.34
2017-10-22T19:21:27.015Z,10.95
2017-10-22T19:23:55.039Z,11.13
2017-10-22T19:26:24.573Z,11.21
2017-10-22T19:28:53.113Z,11.45
2017-10-22T19:31:20.832Z,11.41
2017-10-22T19:33:49.190Z,11.22
2017-10-22T19:36:16.776Z,11.26
2017-10-22T19:38:45.153Z,10.99
2017-10-22T19:41:12.713Z,10.92
2017-10-22T19:43:41.062Z,11.10
2017-10-22T19:46:08.890Z,11.30
2017-10-22T19:48:36.526Z,11.52
2017-10-22T19:51:05.033Z,11.63
2017-10-22T19:53:32.603Z,11.46
2017-10-22T19:56:00.192Z,11.62
2017-10-22T19:58:28.513Z,11.64
2017-10-22T20:00:56.208Z,11.43
2017-10-22T20:03:23.833Z,11.61
2017-10-22T20:05:51.472Z,11.59
2017-10-22T20:08:19.840Z,11.20
2017-10-22T20:10:47.766Z,11.03
2017-10-22T20:13:17.022Z,11.25
2017-10-22T20:15:44.744Z,11.11
2017-10-22T20:18:13.625Z,11.37
2017-10-22T20:20:41.420Z,11.26
2017-10-22T20:23:09.195Z,11.16
2017-10-22T20:25:37.864Z,10.90
2017-10-22T20:28:05.544Z,10.57
2017-10-22T20:30:33.465Z,10.56
2017-10-22T20:33:04.014Z,10.66
2017-10-22T20:35:33.527Z,10.75
2017-10-22T20:38:02.090Z,10.65
2017-10-22T20:40:29.664Z,10.78
2017-10-22T20:42:57.520Z,10.78
2017-10-22T20:45:27.149Z,10.74
2017-10-22T20:47:55.337Z,10.70
2017-10-22T20:50:25.141Z,10.69
2017-10-22T20:52:57.098Z,10.78
2017-10-22T20:55:24.758Z,10.70
2017-10-22T20:57:54.267Z,10.76
2017-10-22T21:00:21.922Z,10.54
2017-10-22T21:02:50.770Z,10.43
2017-10-22T21:05:20.223Z,10.48
2017-10-22T21:07:48.705Z,10.70
2017-10-22T21:10:16.871Z,10.84
2017-10-22T21:12:45.211Z,10.78
2017-10-22T21:15:12.771Z,10.80
2017-10-22T21:17:40.337Z,10.75
2017-10-22T21:20:08.324Z,10.66
2017-10-22T21:22:36.073Z,10.37
2017-10-22T21:25:03.643Z,10.39
2017-10-22T21:27:32.096Z,10.57
2017-10-22T21:30:00.289Z,10.54
2017-10-22T21:32:27.804Z,10.68
2017-10-22T21:34:55.441Z,10.64
2017-10-22T21:37:23.074Z,10.76
2017-10-22T21:39:52.971Z,10.61
2017-10-22T21:42:21.822Z,10.73
2017-10-22T21:44:50.601Z,10.67
2017-10-22T21:47:27.194Z,10.85
2017-10-22T21:49:54.816Z,10.85
2017-10-22T21:52:22.439Z,11.01
2017-10-22T21:54:49.961Z,10.74
2017-10-22T21:57:17.639Z,10.59
2017-10-22T21:59:45.333Z,10.55
2017-10-22T22:02:13.566Z,10.66
2017-10-22T22:04:42.269Z,10.76
2017-10-22T22:07:10.800Z,10.69
2017-10-22T22:09:42.663Z,10.88
2017-10-22T22:12:11.140Z,11.06
2017-10-22T22:14:40.591Z,11.21
2017-10-22T22:17:08.139Z,11.27
2017-10-22T22:19:36.071Z,11.34
2017-10-22T22:22:08.776Z,11.44
2017-10-22T22:24:37.876Z,11.53
2017-10-22T22:27:05.521Z,11.52
2017-10-22T22:29:34.204Z,11.38
2017-10-22T22:32:01.756Z,11.29
2017-10-22T22:34:29.381Z,11.10
2017-10-22T22:36:57.097Z,11.26
2017-10-22T22:39:26.142Z,11.35
2017-10-22T22:41:53.762Z,11.29
2017-10-22T22:44:21.455Z,11.31
2017-10-22T22:46:49.009Z,11.39
2017-10-22T22:49:18.520Z,10.95
2017-10-22T22:51:47.078Z,11.06
2017-10-22T22:54:16.212Z,10.88
2017-10-22T22:56:44.975Z,11.05
2017-10-22T22:59:13.419Z,10.86
2017-10-22T23:01:41.135Z,10.85
2017-10-22T23:04:10.941Z,10.98
2017-10-22T23:06:38.623Z,10.91
2017-10-22T23:09:07.430Z,10.89
2017-10-22T23:11:35.416Z,10.92
2017-10-22T23:14:03.151Z,10.89
2017-10-22T23:16:31.480Z,10.60
2017-10-22T23:19:00.421Z,10.83
2017-10-22T23:21:28.041Z,10.90
2017-10-22T23:23:55.758Z,10.62
2017-10-22T23:26:24.400Z,10.79
2017-10-22T23:28:51.977Z,10.53
2017-10-22T23:31:19.761Z,10.74
2017-10-22T23:33:48.472Z,10.72
2017-10-22T23:36:16.102Z,10.63
2017-10-22T23:38:44.443Z,10.51
2017-10-22T23:41:12.872Z,10.58
2017-10-22T23:43:40.426Z,10.52
2017-10-22T23:46:08.278Z,10.45
2017-10-22T23:48:36.671Z,10.49
2017-10-22T23:51:05.072Z,10.40
2017-10-22T23:53:33.704Z,10.20
2017-10-22T23:56:02.485Z,10.33
2017-10-22T23:58:31.303Z,10.37
